sensor_id;sensor_type;location;lat;lon;timestamp;P1;durP1;ratioP1;P2;durP2;ratioP2
12165;SDS011;6146;48.128;11.476;2024-01-30T00:01:22;7.87;;;5.00;;
12165;SDS011;6146;48.128;11.476;2024-01-30T00:03:47;6.23;;;4.63;;
12165;SDS011;6146;48.128;11.476;2024-01-30T00:06:13;7.07;;;5.30;;
12165;SDS011;6146;48.128;11.476;2024-01-30T00:08:38;7.30;;;5.10;;
12165;SDS011;6146;48.128;11.476;2024-01-30T00:11:04;6.57;;;5.63;;
12165;SDS011;6146;48.128;11.476;2024-01-30T00:13:29;5.37;;;4.80;;
12165;SDS011;6146;48.128;11.476;2024-01-30T00:15:55;7.37;;;5.47;;
12165;SDS011;6146;48.128;11.476;2024-01-30T00:18:20;6.70;;;5.07;;
12165;SDS011;6146;48.128;11.476;2024-01-30T00:20:46;6.90;;;4.93;;
12165;SDS011;6146;48.128;11.476;2024-01-30T00:23:12;9.27;;;5.23;;
12165;SDS011;6146;48.128;11.476;2024-01-30T00:25:37;6.37;;;5.17;;
12165;SDS011;6146;48.128;11.476;2024-01-30T00:28:03;8.30;;;5.90;;
12165;SDS011;6146;48.128;11.476;2024-01-30T00:30:29;8.40;;;5.07;;
12165;SDS011;6146;48.128;11.476;2024-01-30T00:32:54;6.27;;;5.30;;
12165;SDS011;6146;48.128;11.476;2024-01-30T00:35:20;7.70;;;5.57;;
12165;SDS011;6146;48.128;11.476;2024-01-30T00:37:47;9.00;;;5.83;;
12165;SDS011;6146;48.128;11.476;2024-01-30T00:40:13;6.27;;;5.63;;
12165;SDS011;6146;48.128;11.476;2024-01-30T00:42:41;8.93;;;5.30;;
12165;SDS011;6146;48.128;11.476;2024-01-30T00:45:11;8.27;;;5.93;;
12165;SDS011;6146;48.128;11.476;2024-01-30T00:47:38;7.23;;;5.37;;
12165;SDS011;6146;48.128;11.476;2024-01-30T00:50:04;8.43;;;5.60;;
12165;SDS011;6146;48.128;11.476;2024-01-30T00:52:30;6.60;;;4.83;;
12165;SDS011;6146;48.128;11.476;2024-01-30T00:54:55;8.50;;;5.23;;
12165;SDS011;6146;48.128;11.476;2024-01-30T00:57:21;6.67;;;5.40;;
12165;SDS011;6146;48.128;11.476;2024-01-30T00:59:46;6.97;;;5.87;;
12165;SDS011;6146;48.128;11.476;2024-01-30T01:02:12;6.53;;;4.93;;
12165;SDS011;6146;48.128;11.476;2024-01-30T01:04:38;8.10;;;5.70;;
12165;SDS011;6146;48.128;11.476;2024-01-30T01:07:04;5.80;;;5.10;;
12165;SDS011;6146;48.128;11.476;2024-01-30T01:09:29;8.77;;;5.77;;
12165;SDS011;6146;48.128;11.476;2024-01-30T01:11:55;7.07;;;5.23;;
12165;SDS011;6146;48.128;11.476;2024-01-30T01:14:20;8.10;;;5.63;;
12165;SDS011;6146;48.128;11.476;2024-01-30T01:16:46;6.67;;;5.70;;
12165;SDS011;6146;48.128;11.476;2024-01-30T01:19:11;8.23;;;5.40;;
12165;SDS011;6146;48.128;11.476;2024-01-30T01:21:37;7.33;;;5.73;;
12165;SDS011;6146;48.128;11.476;2024-01-30T01:24:03;7.70;;;5.30;;
12165;SDS011;6146;48.128;11.476;2024-01-30T01:26:28;8.30;;;5.40;;
12165;SDS011;6146;48.128;11.476;2024-01-30T01:28:54;7.93;;;5.37;;
12165;SDS011;6146;48.128;11.476;2024-01-30T01:31:20;8.07;;;5.17;;
12165;SDS011;6146;48.128;11.476;2024-01-30T01:33:49;7.10;;;5.93;;
12165;SDS011;6146;48.128;11.476;2024-01-30T01:36:15;8.67;;;5.70;;
12165;SDS011;6146;48.128;11.476;2024-01-30T01:38:40;6.73;;;4.87;;
12165;SDS011;6146;48.128;11.476;2024-01-30T01:41:06;7.87;;;5.90;;
12165;SDS011;6146;48.128;11.476;2024-01-30T01:43:32;7.00;;;5.57;;
12165;SDS011;6146;48.128;11.476;2024-01-30T01:45:57;7.17;;;5.87;;
12165;SDS011;6146;48.128;11.476;2024-01-30T01:48:23;8.13;;;5.53;;
12165;SDS011;6146;48.128;11.476;2024-01-30T01:50:48;6.10;;;5.00;;
12165;SDS011;6146;48.128;11.476;2024-01-30T01:53:14;10.77;;;5.40;;
12165;SDS011;6146;48.128;11.476;2024-01-30T01:55:40;5.80;;;4.60;;
12165;SDS011;6146;48.128;11.476;2024-01-30T01:58:06;8.57;;;5.70;;
12165;SDS011;6146;48.128;11.476;2024-01-30T02:00:34;7.90;;;4.57;;
12165;SDS011;6146;48.128;11.476;2024-01-30T02:03:00;5.13;;;4.63;;
12165;SDS011;6146;48.128;11.476;2024-01-30T02:05:29;7.33;;;4.93;;
12165;SDS011;6146;48.128;11.476;2024-01-30T02:07:55;8.20;;;5.30;;
12165;SDS011;6146;48.128;11.476;2024-01-30T02:10:21;7.40;;;4.93;;
12165;SDS011;6146;48.128;11.476;2024-01-30T02:12:48;6.80;;;4.70;;
12165;SDS011;6146;48.128;11.476;2024-01-30T02:15:14;7.37;;;4.97;;
12165;SDS011;6146;48.128;11.476;2024-01-30T02:17:39;7.33;;;5.80;;
12165;SDS011;6146;48.128;11.476;2024-01-30T02:20:05;6.77;;;5.23;;
12165;SDS011;6146;48.128;11.476;2024-01-30T02:22:31;5.13;;;4.50;;
12165;SDS011;6146;48.128;11.476;2024-01-30T02:24:59;6.83;;;4.87;;
12165;SDS011;6146;48.128;11.476;2024-01-30T02:27:24;7.23;;;5.27;;
12165;SDS011;6146;48.128;11.476;2024-01-30T02:29:50;5.87;;;4.50;;
12165;SDS011;6146;48.128;11.476;2024-01-30T02:32:15;7.57;;;4.93;;
12165;SDS011;6146;48.128;11.476;2024-01-30T02:34:41;6.40;;;4.63;;
12165;SDS011;6146;48.128;11.476;2024-01-30T02:37:07;6.83;;;4.53;;
12165;SDS011;6146;48.128;11.476;2024-01-30T02:39:32;7.03;;;5.43;;
12165;SDS011;6146;48.128;11.476;2024-01-30T02:41:58;6.60;;;4.93;;
12165;SDS011;6146;48.128;11.476;2024-01-30T02:44:23;7.50;;;4.77;;
12165;SDS011;6146;48.128;11.476;2024-01-30T02:46:49;5.43;;;4.33;;
12165;SDS011;6146;48.128;11.476;2024-01-30T02:49:14;5.73;;;4.40;;
12165;SDS011;6146;48.128;11.476;2024-01-30T02:51:40;4.10;;;3.70;;
12165;SDS011;6146;48.128;11.476;2024-01-30T02:54:05;5.90;;;4.20;;
12165;SDS011;6146;48.128;11.476;2024-01-30T02:56:31;7.37;;;5.13;;
12165;SDS011;6146;48.128;11.476;2024-01-30T02:58:56;6.23;;;4.73;;
12165;SDS011;6146;48.128;11.476;2024-01-30T03:01:22;5.60;;;4.23;;
12165;SDS011;6146;48.128;11.476;2024-01-30T03:03:49;5.37;;;4.07;;
12165;SDS011;6146;48.128;11.476;2024-01-30T03:06:15;5.67;;;3.93;;
12165;SDS011;6146;48.128;11.476;2024-01-30T03:08:42;6.40;;;4.17;;
12165;SDS011;6146;48.128;11.476;2024-01-30T03:11:08;4.27;;;3.50;;
12165;SDS011;6146;48.128;11.476;2024-01-30T03:13:33;4.83;;;3.67;;
12165;SDS011;6146;48.128;11.476;2024-01-30T03:15:59;5.70;;;3.87;;
12165;SDS011;6146;48.128;11.476;2024-01-30T03:18:24;5.97;;;3.60;;
12165;SDS011;6146;48.128;11.476;2024-01-30T03:20:50;4.87;;;3.87;;
12165;SDS011;6146;48.128;11.476;2024-01-30T03:23:16;4.50;;;3.53;;
12165;SDS011;6146;48.128;11.476;2024-01-30T03:25:41;5.00;;;4.03;;
12165;SDS011;6146;48.128;11.476;2024-01-30T03:28:07;4.43;;;3.13;;
12165;SDS011;6146;48.128;11.476;2024-01-30T03:30:34;4.40;;;3.50;;
12165;SDS011;6146;48.128;11.476;2024-01-30T03:33:00;5.33;;;3.70;;
12165;SDS011;6146;48.128;11.476;2024-01-30T03:35:25;5.90;;;3.53;;
12165;SDS011;6146;48.128;11.476;2024-01-30T03:37:51;7.20;;;4.30;;
12165;SDS011;6146;48.128;11.476;2024-01-30T03:40:16;5.43;;;4.07;;
12165;SDS011;6146;48.128;11.476;2024-01-30T03:42:42;4.73;;;3.97;;
12165;SDS011;6146;48.128;11.476;2024-01-30T03:45:08;6.47;;;4.20;;
12165;SDS011;6146;48.128;11.476;2024-01-30T03:47:33;6.50;;;3.57;;
12165;SDS011;6146;48.128;11.476;2024-01-30T03:49:59;5.87;;;4.03;;
12165;SDS011;6146;48.128;11.476;2024-01-30T03:52:24;5.27;;;3.80;;
12165;SDS011;6146;48.128;11.476;2024-01-30T03:54:50;5.87;;;4.10;;
12165;SDS011;6146;48.128;11.476;2024-01-30T03:57:15;4.93;;;3.70;;
12165;SDS011;6146;48.128;11.476;2024-01-30T03:59:42;6.97;;;3.73;;
12165;SDS011;6146;48.128;11.476;2024-01-30T04:02:07;4.53;;;3.80;;
12165;SDS011;6146;48.128;11.476;2024-01-30T04:04:34;7.47;;;3.70;;
12165;SDS011;6146;48.128;11.476;2024-01-30T04:07:00;5.10;;;3.80;;
12165;SDS011;6146;48.128;11.476;2024-01-30T04:09:25;5.23;;;4.07;;
12165;SDS011;6146;48.128;11.476;2024-01-30T04:11:53;4.00;;;3.40;;
12165;SDS011;6146;48.128;11.476;2024-01-30T04:14:19;4.47;;;3.50;;
12165;SDS011;6146;48.128;11.476;2024-01-30T04:16:44;5.67;;;4.00;;
12165;SDS011;6146;48.128;11.476;2024-01-30T04:19:10;5.30;;;3.67;;
12165;SDS011;6146;48.128;11.476;2024-01-30T04:21:35;3.97;;;3.47;;
12165;SDS011;6146;48.128;11.476;2024-01-30T04:24:01;4.27;;;3.40;;
12165;SDS011;6146;48.128;11.476;2024-01-30T04:26:26;3.70;;;3.10;;
12165;SDS011;6146;48.128;11.476;2024-01-30T04:28:52;4.27;;;3.47;;
12165;SDS011;6146;48.128;11.476;2024-01-30T04:31:18;4.13;;;3.40;;
12165;SDS011;6146;48.128;11.476;2024-01-30T04:33:43;4.70;;;3.40;;
12165;SDS011;6146;48.128;11.476;2024-01-30T04:36:09;4.77;;;3.30;;
12165;SDS011;6146;48.128;11.476;2024-01-30T04:38:38;6.50;;;3.63;;
12165;SDS011;6146;48.128;11.476;2024-01-30T04:41:04;5.53;;;3.77;;
12165;SDS011;6146;48.128;11.476;2024-01-30T04:43:29;4.73;;;3.27;;
12165;SDS011;6146;48.128;11.476;2024-01-30T04:45:55;4.10;;;3.30;;
12165;SDS011;6146;48.128;11.476;2024-01-30T04:48:21;4.20;;;3.70;;
12165;SDS011;6146;48.128;11.476;2024-01-30T04:50:46;4.63;;;3.47;;
12165;SDS011;6146;48.128;11.476;2024-01-30T04:53:12;3.73;;;3.23;;
12165;SDS011;6146;48.128;11.476;2024-01-30T04:55:38;4.77;;;3.70;;
12165;SDS011;6146;48.128;11.476;2024-01-30T04:58:03;4.40;;;3.40;;
12165;SDS011;6146;48.128;11.476;2024-01-30T05:00:29;3.57;;;3.00;;
12165;SDS011;6146;48.128;11.476;2024-01-30T05:02:55;4.00;;;3.10;;
12165;SDS011;6146;48.128;11.476;2024-01-30T05:05:20;6.00;;;3.47;;
12165;SDS011;6146;48.128;11.476;2024-01-30T05:07:46;3.53;;;3.20;;
12165;SDS011;6146;48.128;11.476;2024-01-30T05:10:12;4.00;;;3.10;;
12165;SDS011;6146;48.128;11.476;2024-01-30T05:12:39;4.33;;;3.17;;
12165;SDS011;6146;48.128;11.476;2024-01-30T05:15:04;5.73;;;3.60;;
12165;SDS011;6146;48.128;11.476;2024-01-30T05:17:30;4.23;;;3.20;;
12165;SDS011;6146;48.128;11.476;2024-01-30T05:19:56;5.97;;;3.57;;
12165;SDS011;6146;48.128;11.476;2024-01-30T05:22:21;5.60;;;3.40;;
12165;SDS011;6146;48.128;11.476;2024-01-30T05:24:47;3.70;;;3.10;;
12165;SDS011;6146;48.128;11.476;2024-01-30T05:27:12;3.67;;;2.97;;
12165;SDS011;6146;48.128;11.476;2024-01-30T05:29:40;4.57;;;3.37;;
12165;SDS011;6146;48.128;11.476;2024-01-30T05:32:06;4.40;;;3.70;;
12165;SDS011;6146;48.128;11.476;2024-01-30T05:34:32;4.80;;;3.83;;
12165;SDS011;6146;48.128;11.476;2024-01-30T05:36:57;5.23;;;3.87;;
12165;SDS011;6146;48.128;11.476;2024-01-30T05:39:23;4.07;;;3.20;;
12165;SDS011;6146;48.128;11.476;2024-01-30T05:41:49;4.60;;;3.40;;
12165;SDS011;6146;48.128;11.476;2024-01-30T05:44:14;4.60;;;3.27;;
12165;SDS011;6146;48.128;11.476;2024-01-30T05:46:40;4.33;;;3.50;;
12165;SDS011;6146;48.128;11.476;2024-01-30T05:49:05;4.13;;;3.70;;
12165;SDS011;6146;48.128;11.476;2024-01-30T05:51:31;3.80;;;3.23;;
12165;SDS011;6146;48.128;11.476;2024-01-30T05:53:56;7.87;;;4.90;;
12165;SDS011;6146;48.128;11.476;2024-01-30T05:56:22;5.67;;;3.60;;
12165;SDS011;6146;48.128;11.476;2024-01-30T05:58:48;5.43;;;3.80;;
12165;SDS011;6146;48.128;11.476;2024-01-30T06:01:15;4.90;;;3.40;;
12165;SDS011;6146;48.128;11.476;2024-01-30T06:03:41;4.03;;;3.57;;
12165;SDS011;6146;48.128;11.476;2024-01-30T06:06:08;4.17;;;3.60;;
12165;SDS011;6146;48.128;11.476;2024-01-30T06:08:34;4.97;;;4.20;;
12165;SDS011;6146;48.128;11.476;2024-01-30T06:10:59;4.83;;;4.00;;
12165;SDS011;6146;48.128;11.476;2024-01-30T06:13:25;5.23;;;3.67;;
12165;SDS011;6146;48.128;11.476;2024-01-30T06:15:51;3.97;;;3.00;;
12165;SDS011;6146;48.128;11.476;2024-01-30T06:18:17;4.87;;;3.47;;
12165;SDS011;6146;48.128;11.476;2024-01-30T06:20:42;5.60;;;3.60;;
12165;SDS011;6146;48.128;11.476;2024-01-30T06:23:08;4.63;;;3.40;;
12165;SDS011;6146;48.128;11.476;2024-01-30T06:25:34;4.90;;;3.57;;
12165;SDS011;6146;48.128;11.476;2024-01-30T06:27:59;7.33;;;3.77;;
12165;SDS011;6146;48.128;11.476;2024-01-30T06:30:25;4.30;;;3.60;;
12165;SDS011;6146;48.128;11.476;2024-01-30T06:32:50;6.23;;;3.37;;
12165;SDS011;6146;48.128;11.476;2024-01-30T06:35:16;5.90;;;3.73;;
12165;SDS011;6146;48.128;11.476;2024-01-30T06:37:42;5.00;;;3.50;;
12165;SDS011;6146;48.128;11.476;2024-01-30T06:40:08;5.47;;;4.00;;
12165;SDS011;6146;48.128;11.476;2024-01-30T06:42:34;5.17;;;3.93;;
12165;SDS011;6146;48.128;11.476;2024-01-30T06:45:00;5.60;;;4.13;;
12165;SDS011;6146;48.128;11.476;2024-01-30T06:47:25;8.40;;;4.00;;
12165;SDS011;6146;48.128;11.476;2024-01-30T06:49:51;4.53;;;3.63;;
12165;SDS011;6146;48.128;11.476;2024-01-30T06:52:17;5.30;;;4.20;;
12165;SDS011;6146;48.128;11.476;2024-01-30T06:54:42;5.40;;;4.20;;
12165;SDS011;6146;48.128;11.476;2024-01-30T06:57:08;5.90;;;4.23;;
12165;SDS011;6146;48.128;11.476;2024-01-30T06:59:36;5.10;;;4.20;;
12165;SDS011;6146;48.128;11.476;2024-01-30T07:02:06;5.67;;;4.30;;
12165;SDS011;6146;48.128;11.476;2024-01-30T07:04:32;6.07;;;4.13;;
12165;SDS011;6146;48.128;11.476;2024-01-30T07:06:58;6.03;;;4.47;;
12165;SDS011;6146;48.128;11.476;2024-01-30T07:09:23;5.93;;;4.43;;
12165;SDS011;6146;48.128;11.476;2024-01-30T07:11:49;5.37;;;4.73;;
12165;SDS011;6146;48.128;11.476;2024-01-30T07:14:14;7.47;;;5.40;;
12165;SDS011;6146;48.128;11.476;2024-01-30T07:16:40;6.80;;;5.10;;
12165;SDS011;6146;48.128;11.476;2024-01-30T07:19:05;6.50;;;4.63;;
12165;SDS011;6146;48.128;11.476;2024-01-30T07:21:34;6.63;;;5.07;;
12165;SDS011;6146;48.128;11.476;2024-01-30T07:24:00;7.27;;;5.07;;
12165;SDS011;6146;48.128;11.476;2024-01-30T07:26:25;5.70;;;4.90;;
12165;SDS011;6146;48.128;11.476;2024-01-30T07:28:51;7.70;;;5.07;;
12165;SDS011;6146;48.128;11.476;2024-01-30T07:31:16;8.83;;;4.70;;
12165;SDS011;6146;48.128;11.476;2024-01-30T07:33:42;5.23;;;4.70;;
12165;SDS011;6146;48.128;11.476;2024-01-30T07:36:08;7.57;;;4.87;;
12165;SDS011;6146;48.128;11.476;2024-01-30T07:38:33;7.07;;;4.77;;
12165;SDS011;6146;48.128;11.476;2024-01-30T07:40:59;9.93;;;5.17;;
12165;SDS011;6146;48.128;11.476;2024-01-30T07:43:24;7.13;;;5.00;;
12165;SDS011;6146;48.128;11.476;2024-01-30T07:45:50;7.07;;;4.53;;
12165;SDS011;6146;48.128;11.476;2024-01-30T07:48:16;5.60;;;4.40;;
12165;SDS011;6146;48.128;11.476;2024-01-30T07:50:42;7.37;;;4.97;;
12165;SDS011;6146;48.128;11.476;2024-01-30T07:53:07;4.93;;;3.80;;
12165;SDS011;6146;48.128;11.476;2024-01-30T07:55:33;6.20;;;4.63;;
12165;SDS011;6146;48.128;11.476;2024-01-30T07:57:58;5.23;;;4.50;;
12165;SDS011;6146;48.128;11.476;2024-01-30T08:00:25;7.17;;;5.07;;
12165;SDS011;6146;48.128;11.476;2024-01-30T08:02:50;8.47;;;4.57;;
12165;SDS011;6146;48.128;11.476;2024-01-30T08:05:19;4.83;;;3.80;;
12165;SDS011;6146;48.128;11.476;2024-01-30T08:07:47;5.17;;;4.20;;
12165;SDS011;6146;48.128;11.476;2024-01-30T08:10:13;7.43;;;4.40;;
12165;SDS011;6146;48.128;11.476;2024-01-30T08:12:39;5.67;;;4.20;;
12165;SDS011;6146;48.128;11.476;2024-01-30T08:15:04;8.20;;;4.33;;
12165;SDS011;6146;48.128;11.476;2024-01-30T08:17:30;7.50;;;4.30;;
12165;SDS011;6146;48.128;11.476;2024-01-30T08:19:56;5.00;;;4.03;;
12165;SDS011;6146;48.128;11.476;2024-01-30T08:22:21;7.17;;;3.70;;
12165;SDS011;6146;48.128;11.476;2024-01-30T08:24:47;5.83;;;3.80;;
12165;SDS011;6146;48.128;11.476;2024-01-30T08:27:13;5.67;;;3.80;;
12165;SDS011;6146;48.128;11.476;2024-01-30T08:29:38;6.13;;;4.10;;
12165;SDS011;6146;48.128;11.476;2024-01-30T08:32:04;4.90;;;3.33;;
12165;SDS011;6146;48.128;11.476;2024-01-30T08:34:30;5.50;;;3.60;;
12165;SDS011;6146;48.128;11.476;2024-01-30T08:36:56;4.00;;;3.37;;
12165;SDS011;6146;48.128;11.476;2024-01-30T08:39:22;6.47;;;3.77;;
12165;SDS011;6146;48.128;11.476;2024-01-30T08:41:47;5.00;;;3.70;;
12165;SDS011;6146;48.128;11.476;2024-01-30T08:44:13;5.87;;;3.77;;
12165;SDS011;6146;48.128;11.476;2024-01-30T08:46:39;4.90;;;3.30;;
12165;SDS011;6146;48.128;11.476;2024-01-30T08:49:04;4.23;;;3.17;;
12165;SDS011;6146;48.128;11.476;2024-01-30T08:51:30;4.50;;;2.87;;
12165;SDS011;6146;48.128;11.476;2024-01-30T08:53:55;3.90;;;2.80;;
12165;SDS011;6146;48.128;11.476;2024-01-30T08:56:21;3.47;;;2.90;;
12165;SDS011;6146;48.128;11.476;2024-01-30T08:58:47;4.33;;;2.80;;
12165;SDS011;6146;48.128;11.476;2024-01-30T09:01:12;4.53;;;2.80;;
12165;SDS011;6146;48.128;11.476;2024-01-30T09:03:39;3.97;;;2.80;;
12165;SDS011;6146;48.128;11.476;2024-01-30T09:06:09;3.73;;;2.30;;
12165;SDS011;6146;48.128;11.476;2024-01-30T09:08:35;3.83;;;2.67;;
12165;SDS011;6146;48.128;11.476;2024-01-30T09:11:01;3.47;;;2.60;;
12165;SDS011;6146;48.128;11.476;2024-01-30T09:13:27;3.53;;;2.53;;
12165;SDS011;6146;48.128;11.476;2024-01-30T09:15:52;4.43;;;3.20;;
12165;SDS011;6146;48.128;11.476;2024-01-30T09:18:18;3.13;;;2.80;;
12165;SDS011;6146;48.128;11.476;2024-01-30T09:20:44;4.73;;;2.87;;
12165;SDS011;6146;48.128;11.476;2024-01-30T09:23:12;4.07;;;2.70;;
12165;SDS011;6146;48.128;11.476;2024-01-30T09:25:38;4.33;;;3.30;;
12165;SDS011;6146;48.128;11.476;2024-01-30T09:28:04;4.10;;;2.67;;
12165;SDS011;6146;48.128;11.476;2024-01-30T09:30:30;3.03;;;2.53;;
12165;SDS011;6146;48.128;11.476;2024-01-30T09:32:55;4.63;;;3.17;;
12165;SDS011;6146;48.128;11.476;2024-01-30T09:35:21;4.27;;;3.20;;
12165;SDS011;6146;48.128;11.476;2024-01-30T09:37:46;6.40;;;3.00;;
12165;SDS011;6146;48.128;11.476;2024-01-30T09:40:13;3.23;;;2.50;;
12165;SDS011;6146;48.128;11.476;2024-01-30T09:42:39;3.00;;;2.70;;
12165;SDS011;6146;48.128;11.476;2024-01-30T09:45:07;4.70;;;3.00;;
12165;SDS011;6146;48.128;11.476;2024-01-30T09:47:45;8.33;;;3.10;;
12165;SDS011;6146;48.128;11.476;2024-01-30T09:50:12;3.53;;;3.23;;
12165;SDS011;6146;48.128;11.476;2024-01-30T09:52:39;4.20;;;2.97;;
12165;SDS011;6146;48.128;11.476;2024-01-30T09:55:05;4.03;;;2.33;;
12165;SDS011;6146;48.128;11.476;2024-01-30T09:57:31;4.57;;;2.50;;
12165;SDS011;6146;48.128;11.476;2024-01-30T09:59:57;3.50;;;2.63;;
12165;SDS011;6146;48.128;11.476;2024-01-30T10:02:23;2.73;;;2.43;;
12165;SDS011;6146;48.128;11.476;2024-01-30T10:04:49;3.30;;;2.30;;
12165;SDS011;6146;48.128;11.476;2024-01-30T10:07:15;3.67;;;2.50;;
12165;SDS011;6146;48.128;11.476;2024-01-30T10:09:41;3.80;;;2.20;;
12165;SDS011;6146;48.128;11.476;2024-01-30T10:12:07;2.77;;;2.37;;
12165;SDS011;6146;48.128;11.476;2024-01-30T10:14:37;2.97;;;2.40;;
12165;SDS011;6146;48.128;11.476;2024-01-30T10:17:03;2.97;;;2.27;;
12165;SDS011;6146;48.128;11.476;2024-01-30T10:19:30;4.73;;;2.10;;
12165;SDS011;6146;48.128;11.476;2024-01-30T10:21:56;5.63;;;2.00;;
12165;SDS011;6146;48.128;11.476;2024-01-30T10:24:25;2.67;;;2.13;;
12165;SDS011;6146;48.128;11.476;2024-01-30T10:26:51;5.00;;;2.33;;
12165;SDS011;6146;48.128;11.476;2024-01-30T10:29:17;3.35;;;2.20;;
12165;SDS011;6146;48.128;11.476;2024-01-30T10:31:43;2.20;;;1.90;;
12165;SDS011;6146;48.128;11.476;2024-01-30T10:34:09;4.38;;;2.10;;
12165;SDS011;6146;48.128;11.476;2024-01-30T10:36:40;1.80;;;1.70;;
12165;SDS011;6146;48.128;11.476;2024-01-30T10:39:08;8.32;;;2.08;;
12165;SDS011;6146;48.128;11.476;2024-01-30T10:41:36;3.42;;;1.52;;
12165;SDS011;6146;48.128;11.476;2024-01-30T10:44:08;2.58;;;1.73;;
12165;SDS011;6146;48.128;11.476;2024-01-30T10:46:35;2.92;;;1.65;;
12165;SDS011;6146;48.128;11.476;2024-01-30T10:49:03;2.75;;;1.75;;
12165;SDS011;6146;48.128;11.476;2024-01-30T10:51:31;1.83;;;1.65;;
12165;SDS011;6146;48.128;11.476;2024-01-30T10:53:57;4.32;;;1.83;;
12165;SDS011;6146;48.128;11.476;2024-01-30T10:56:23;3.25;;;2.10;;
12165;SDS011;6146;48.128;11.476;2024-01-30T10:58:50;2.05;;;1.70;;
12165;SDS011;6146;48.128;11.476;2024-01-30T11:01:20;3.00;;;1.65;;
12165;SDS011;6146;48.128;11.476;2024-01-30T11:03:52;1.67;;;1.45;;
12165;SDS011;6146;48.128;11.476;2024-01-30T11:06:22;2.65;;;1.75;;
12165;SDS011;6146;48.128;11.476;2024-01-30T11:09:10;1.85;;;1.60;;
12165;SDS011;6146;48.128;11.476;2024-01-30T11:11:49;3.83;;;2.00;;
12165;SDS011;6146;48.128;11.476;2024-01-30T11:14:16;1.90;;;1.60;;
12165;SDS011;6146;48.128;11.476;2024-01-30T11:16:42;1.67;;;1.58;;
12165;SDS011;6146;48.128;11.476;2024-01-30T11:19:10;3.53;;;1.75;;
12165;SDS011;6146;48.128;11.476;2024-01-30T11:21:42;2.25;;;1.80;;
12165;SDS011;6146;48.128;11.476;2024-01-30T11:24:07;4.72;;;2.42;;
12165;SDS011;6146;48.128;11.476;2024-01-30T11:26:33;3.15;;;1.80;;
12165;SDS011;6146;48.128;11.476;2024-01-30T11:28:59;2.67;;;2.00;;
12165;SDS011;6146;48.128;11.476;2024-01-30T11:31:29;3.60;;;2.35;;
12165;SDS011;6146;48.128;11.476;2024-01-30T11:33:55;2.75;;;2.15;;
12165;SDS011;6146;48.128;11.476;2024-01-30T11:36:22;2.83;;;2.17;;
12165;SDS011;6146;48.128;11.476;2024-01-30T11:38:51;3.70;;;2.05;;
12165;SDS011;6146;48.128;11.476;2024-01-30T11:41:17;4.78;;;1.90;;
12165;SDS011;6146;48.128;11.476;2024-01-30T11:43:43;3.42;;;2.10;;
12165;SDS011;6146;48.128;11.476;2024-01-30T11:46:16;2.45;;;1.77;;
12165;SDS011;6146;48.128;11.476;2024-01-30T11:48:41;3.03;;;1.90;;
12165;SDS011;6146;48.128;11.476;2024-01-30T11:51:07;4.30;;;1.95;;
12165;SDS011;6146;48.128;11.476;2024-01-30T11:53:32;4.13;;;1.95;;
12165;SDS011;6146;48.128;11.476;2024-01-30T11:55:58;2.53;;;1.73;;
12165;SDS011;6146;48.128;11.476;2024-01-30T11:58:26;2.80;;;1.88;;
12165;SDS011;6146;48.128;11.476;2024-01-30T12:00:53;2.22;;;1.60;;
12165;SDS011;6146;48.128;11.476;2024-01-30T12:03:20;4.03;;;1.85;;
12165;SDS011;6146;48.128;11.476;2024-01-30T12:05:46;2.42;;;1.60;;
12165;SDS011;6146;48.128;11.476;2024-01-30T12:08:15;2.35;;;1.60;;
12165;SDS011;6146;48.128;11.476;2024-01-30T12:10:41;1.65;;;1.50;;
12165;SDS011;6146;48.128;11.476;2024-01-30T12:13:07;1.58;;;1.38;;
12165;SDS011;6146;48.128;11.476;2024-01-30T12:15:32;1.60;;;1.50;;
12165;SDS011;6146;48.128;11.476;2024-01-30T12:18:05;3.90;;;1.75;;
12165;SDS011;6146;48.128;11.476;2024-01-30T12:20:31;3.17;;;1.85;;
12165;SDS011;6146;48.128;11.476;2024-01-30T12:22:56;2.42;;;1.75;;
12165;SDS011;6146;48.128;11.476;2024-01-30T12:25:22;4.33;;;1.70;;
12165;SDS011;6146;48.128;11.476;2024-01-30T12:27:49;3.80;;;1.80;;
12165;SDS011;6146;48.128;11.476;2024-01-30T12:30:16;1.93;;;1.70;;
12165;SDS011;6146;48.128;11.476;2024-01-30T12:32:43;5.23;;;2.23;;
12165;SDS011;6146;48.128;11.476;2024-01-30T12:35:15;1.60;;;1.50;;
12165;SDS011;6146;48.128;11.476;2024-01-30T12:37:42;2.67;;;1.50;;
12165;SDS011;6146;48.128;11.476;2024-01-30T12:40:09;2.73;;;1.70;;
12165;SDS011;6146;48.128;11.476;2024-01-30T12:42:36;1.87;;;1.63;;
12165;SDS011;6146;48.128;11.476;2024-01-30T12:45:02;2.08;;;1.60;;
12165;SDS011;6146;48.128;11.476;2024-01-30T12:47:29;1.93;;;1.50;;
12165;SDS011;6146;48.128;11.476;2024-01-30T12:49:55;2.20;;;1.40;;
12165;SDS011;6146;48.128;11.476;2024-01-30T12:52:21;2.13;;;1.73;;
12165;SDS011;6146;48.128;11.476;2024-01-30T12:54:48;2.30;;;1.70;;
12165;SDS011;6146;48.128;11.476;2024-01-30T12:57:14;2.07;;;1.70;;
12165;SDS011;6146;48.128;11.476;2024-01-30T12:59:39;2.07;;;1.70;;
12165;SDS011;6146;48.128;11.476;2024-01-30T13:02:05;2.27;;;1.60;;
12165;SDS011;6146;48.128;11.476;2024-01-30T13:04:31;2.17;;;1.70;;
12165;SDS011;6146;48.128;11.476;2024-01-30T13:06:57;3.47;;;2.13;;
12165;SDS011;6146;48.128;11.476;2024-01-30T13:09:23;2.90;;;1.55;;
12165;SDS011;6146;48.128;11.476;2024-01-30T13:11:49;2.15;;;1.73;;
12165;SDS011;6146;48.128;11.476;2024-01-30T13:14:16;1.73;;;1.63;;
12165;SDS011;6146;48.128;11.476;2024-01-30T13:16:41;2.97;;;1.60;;
12165;SDS011;6146;48.128;11.476;2024-01-30T13:19:07;2.75;;;1.40;;
12165;SDS011;6146;48.128;11.476;2024-01-30T13:21:32;2.30;;;1.50;;
12165;SDS011;6146;48.128;11.476;2024-01-30T13:23:58;4.10;;;1.77;;
12165;SDS011;6146;48.128;11.476;2024-01-30T13:26:24;2.40;;;1.67;;
12165;SDS011;6146;48.128;11.476;2024-01-30T13:28:49;5.22;;;1.60;;
12165;SDS011;6146;48.128;11.476;2024-01-30T13:31:15;3.30;;;1.67;;
12165;SDS011;6146;48.128;11.476;2024-01-30T13:33:41;3.27;;;1.80;;
12165;SDS011;6146;48.128;11.476;2024-01-30T13:36:07;6.23;;;1.90;;
12165;SDS011;6146;48.128;11.476;2024-01-30T13:38:33;3.33;;;1.70;;
12165;SDS011;6146;48.128;11.476;2024-01-30T13:40:59;2.60;;;1.60;;
12165;SDS011;6146;48.128;11.476;2024-01-30T13:43:25;5.63;;;2.30;;
12165;SDS011;6146;48.128;11.476;2024-01-30T13:45:51;2.83;;;1.60;;
12165;SDS011;6146;48.128;11.476;2024-01-30T13:48:17;3.83;;;1.97;;
12165;SDS011;6146;48.128;11.476;2024-01-30T13:50:42;1.90;;;1.60;;
12165;SDS011;6146;48.128;11.476;2024-01-30T13:53:08;2.77;;;1.53;;
12165;SDS011;6146;48.128;11.476;2024-01-30T13:55:34;4.50;;;1.70;;
12165;SDS011;6146;48.128;11.476;2024-01-30T13:57:59;2.37;;;1.87;;
12165;SDS011;6146;48.128;11.476;2024-01-30T14:00:26;2.17;;;1.60;;
12165;SDS011;6146;48.128;11.476;2024-01-30T14:02:52;2.70;;;1.67;;
12165;SDS011;6146;48.128;11.476;2024-01-30T14:05:19;1.77;;;1.53;;
12165;SDS011;6146;48.128;11.476;2024-01-30T14:07:46;4.07;;;1.90;;
12165;SDS011;6146;48.128;11.476;2024-01-30T14:10:12;1.87;;;1.70;;
12165;SDS011;6146;48.128;11.476;2024-01-30T14:12:38;7.87;;;2.23;;
12165;SDS011;6146;48.128;11.476;2024-01-30T14:15:04;2.27;;;1.97;;
12165;SDS011;6146;48.128;11.476;2024-01-30T14:17:30;4.33;;;1.57;;
12165;SDS011;6146;48.128;11.476;2024-01-30T14:19:55;2.10;;;1.70;;
12165;SDS011;6146;48.128;11.476;2024-01-30T14:22:21;3.50;;;2.17;;
12165;SDS011;6146;48.128;11.476;2024-01-30T14:24:47;4.07;;;2.00;;
12165;SDS011;6146;48.128;11.476;2024-01-30T14:27:12;3.10;;;2.30;;
12165;SDS011;6146;48.128;11.476;2024-01-30T14:29:38;4.93;;;2.17;;
12165;SDS011;6146;48.128;11.476;2024-01-30T14:32:04;3.40;;;1.73;;
12165;SDS011;6146;48.128;11.476;2024-01-30T14:34:30;5.10;;;2.13;;
12165;SDS011;6146;48.128;11.476;2024-01-30T14:36:55;3.53;;;1.90;;
12165;SDS011;6146;48.128;11.476;2024-01-30T14:39:21;6.80;;;2.47;;
12165;SDS011;6146;48.128;11.476;2024-01-30T14:41:47;5.23;;;2.40;;